createdAt,value
2017-10-02T00:00:16.384Z,96.90
2017-10-02T00:02:44.009Z,96.60
2017-10-02T00:05:11.620Z,96.90
2017-10-02T00:07:39.252Z,97.00
2017-10-02T00:10:06.895Z,97.10
2017-10-02T00:12:34.522Z,96.80
2017-10-02T00:15:02.115Z,97.10
2017-10-02T00:17:29.739Z,97.30
2017-10-02T00:19:57.357Z,97.30
2017-10-02T00:22:24.993Z,97.10
2017-10-02T00:24:52.595Z,97.50
2017-10-02T00:27:20.263Z,97.60
2017-10-02T00:29:47.880Z,97.70
2017-10-02T00:32:15.515Z,97.60
2017-10-02T00:34:43.144Z,97.60
2017-10-02T00:37:10.775Z,97.50
2017-10-02T00:39:38.393Z,97.70
2017-10-02T00:42:06.947Z,97.70
2017-10-02T00:44:34.547Z,97.60
2017-10-02T00:47:02.870Z,97.90
2017-10-02T00:49:30.465Z,97.90
2017-10-02T00:51:58.101Z,97.90
2017-10-02T00:54:26.373Z,98.00
2017-10-02T00:56:54.019Z,98.20
2017-10-02T00:59:21.661Z,98.10
2017-10-02T01:01:49.291Z,98.20
2017-10-02T01:04:17.100Z,98.20
2017-10-02T01:06:45.236Z,98.20
2017-10-02T01:09:12.838Z,98.10
2017-10-02T01:11:40.519Z,98.10
2017-10-02T01:14:08.142Z,98.10
2017-10-02T01:16:35.724Z,98.20
2017-10-02T01:19:03.358Z,98.20
2017-10-02T01:21:31.718Z,97.90
2017-10-02T01:23:59.419Z,97.90
2017-10-02T01:26:27.050Z,97.70
2017-10-02T01:28:54.682Z,97.60
2017-10-02T01:31:22.302Z,97.40
2017-10-02T01:33:49.897Z,97.30
2017-10-02T01:36:17.521Z,97.30
2017-10-02T01:38:45.120Z,97.30
2017-10-02T01:41:12.742Z,97.40
2017-10-02T01:43:40.638Z,97.50
2017-10-02T01:46:08.252Z,97.50
2017-10-02T01:48:35.870Z,98.00
2017-10-02T01:51:03.478Z,97.90
2017-10-02T01:53:31.112Z,98.30
2017-10-02T01:55:58.743Z,98.50
2017-10-02T01:58:26.458Z,98.40
2017-10-02T02:00:54.130Z,98.60
2017-10-02T02:03:23.241Z,99.30
2017-10-02T02:06:08.300Z,99.40
2017-10-02T02:08:53.460Z,99.70
2017-10-02T02:11:21.094Z,99.70
2017-10-02T02:13:48.672Z,99.60
2017-10-02T02:16:16.307Z,99.50
2017-10-02T02:18:43.930Z,99.60
2017-10-02T02:21:11.575Z,99.70
2017-10-02T02:23:39.165Z,99.90
2017-10-02T02:26:06.862Z,99.90
2017-10-02T02:28:34.439Z,99.90
2017-10-02T02:31:02.062Z,99.90
2017-10-02T02:33:29.678Z,99.90
2017-10-02T02:35:57.268Z,99.90
2017-10-02T02:38:24.899Z,99.90
2017-10-02T02:40:53.284Z,99.90
2017-10-02T02:43:21.720Z,99.90
2017-10-02T02:45:49.342Z,99.90
2017-10-02T02:48:16.936Z,99.90
2017-10-02T02:50:44.548Z,99.90
2017-10-02T02:53:12.189Z,99.90
2017-10-02T02:55:39.784Z,99.90
2017-10-02T02:58:07.425Z,99.90
2017-10-02T03:00:35.813Z,99.90
2017-10-02T03:03:03.441Z,99.90
2017-10-02T03:05:33.437Z,99.90
2017-10-02T03:08:01.579Z,99.90
2017-10-02T03:10:29.165Z,99.90
2017-10-02T03:12:56.746Z,99.90
2017-10-02T03:15:24.357Z,99.90
2017-10-02T03:17:51.982Z,99.90
2017-10-02T03:20:19.828Z,99.90
2017-10-02T03:22:47.430Z,99.90
2017-10-02T03:25:15.809Z,99.90
2017-10-02T03:27:44.276Z,99.90
2017-10-02T03:30:11.863Z,99.90
2017-10-02T03:32:39.492Z,99.90
2017-10-02T03:35:07.033Z,99.90
2017-10-02T03:37:34.654Z,99.90
2017-10-02T03:40:02.318Z,99.90
2017-10-02T03:42:29.938Z,99.90
2017-10-02T03:44:57.525Z,99.90
2017-10-02T03:47:25.127Z,99.90
2017-10-02T03:49:52.704Z,99.60
2017-10-02T03:52:20.304Z,99.20
2017-10-02T03:54:47.892Z,98.80
2017-10-02T03:57:15.489Z,98.30
2017-10-02T03:59:43.134Z,98.20
2017-10-02T04:02:10.775Z,98.10
2017-10-02T04:04:38.459Z,97.90
2017-10-02T04:07:06.538Z,98.00
2017-10-02T04:09:34.152Z,97.80
2017-10-02T04:12:02.378Z,97.70
2017-10-02T04:14:30.006Z,97.40
2017-10-02T04:16:57.694Z,97.20
2017-10-02T04:19:25.316Z,97.40
2017-10-02T04:21:52.903Z,97.00
2017-10-02T04:24:20.501Z,97.00
2017-10-02T04:26:48.112Z,96.90
2017-10-02T04:29:16.417Z,97.00
2017-10-02T04:31:45.079Z,96.90
2017-10-02T04:34:12.660Z,96.70
2017-10-02T04:36:40.298Z,96.80
2017-10-02T04:39:07.885Z,97.00
2017-10-02T04:41:35.540Z,96.90
2017-10-02T04:44:03.167Z,97.10
2017-10-02T04:46:30.754Z,97.00
2017-10-02T04:48:59.149Z,97.00
2017-10-02T04:51:27.425Z,97.00
2017-10-02T04:53:55.155Z,96.80
2017-10-02T04:56:22.778Z,97.00
2017-10-02T04:58:51.125Z,96.70
2017-10-02T05:01:18.769Z,96.70
2017-10-02T05:03:46.691Z,96.90
2017-10-02T05:06:15.042Z,96.50
2017-10-02T05:08:42.625Z,96.50
2017-10-02T05:11:10.962Z,96.50
2017-10-02T05:13:38.655Z,96.50
2017-10-02T05:16:06.240Z,96.50
2017-10-02T05:18:33.824Z,96.50
2017-10-02T05:21:01.420Z,96.50
2017-10-02T05:23:29.045Z,96.50
2017-10-02T05:25:56.665Z,96.50
2017-10-02T05:28:24.296Z,96.50
2017-10-02T05:30:52.110Z,96.40
2017-10-02T05:33:19.734Z,96.60
2017-10-02T05:35:47.324Z,96.00
2017-10-02T05:38:15.734Z,92.20
2017-10-02T05:40:43.376Z,92.10
2017-10-02T05:43:11.738Z,89.30
2017-10-02T05:45:39.377Z,89.30
2017-10-02T05:48:07.001Z,88.10
2017-10-02T05:50:34.612Z,86.90
2017-10-02T05:53:02.234Z,84.10
2017-10-02T05:55:29.822Z,81.70
2017-10-02T05:57:57.412Z,79.40
2017-10-02T06:00:25.058Z,74.70
2017-10-02T06:02:52.689Z,72.10
2017-10-02T06:05:20.406Z,70.70
2017-10-02T06:07:48.094Z,68.30
2017-10-02T06:10:15.810Z,66.00
2017-10-02T06:12:43.403Z,63.30
2017-10-02T06:15:10.991Z,61.40
2017-10-02T06:17:38.620Z,60.00
2017-10-02T06:20:06.205Z,58.50
2017-10-02T06:22:33.840Z,56.80
2017-10-02T06:25:02.188Z,55.00
2017-10-02T06:27:29.811Z,55.00
2017-10-02T06:29:57.446Z,54.80
2017-10-02T06:32:25.834Z,52.30
2017-10-02T06:34:53.495Z,52.30
2017-10-02T06:37:21.098Z,52.20
2017-10-02T06:39:49.040Z,50.40
2017-10-02T06:42:17.253Z,50.30
2017-10-02T06:44:44.959Z,50.30
2017-10-02T06:47:12.606Z,50.10
2017-10-02T06:49:40.206Z,48.90
2017-10-02T06:52:08.105Z,50.20
2017-10-02T06:54:41.595Z,49.80
2017-10-02T06:57:09.285Z,49.80
2017-10-02T06:59:36.904Z,50.50
2017-10-02T07:02:04.510Z,51.10
2017-10-02T07:04:32.180Z,50.80
2017-10-02T07:06:59.771Z,49.50
2017-10-02T07:09:27.379Z,50.00
2017-10-02T07:11:55.011Z,48.20
2017-10-02T07:14:22.662Z,47.80
2017-10-02T07:16:50.297Z,47.40
2017-10-02T07:19:17.997Z,47.20
2017-10-02T07:21:45.625Z,45.70
2017-10-02T07:24:13.295Z,45.60
2017-10-02T07:26:41.128Z,44.10
2017-10-02T07:29:08.748Z,44.50
2017-10-02T07:31:36.379Z,44.00
2017-10-02T07:34:04.014Z,45.20
2017-10-02T07:36:31.801Z,43.90
2017-10-02T07:39:00.154Z,43.90
2017-10-02T07:41:27.789Z,43.80
2017-10-02T07:43:55.468Z,44.90
2017-10-02T07:46:23.100Z,46.30
2017-10-02T07:48:50.696Z,48.90
2017-10-02T07:51:18.289Z,49.30
2017-10-02T07:53:45.971Z,49.30
2017-10-02T07:56:13.607Z,48.40
2017-10-02T07:58:41.206Z,50.20
2017-10-02T08:01:08.804Z,54.00
2017-10-02T08:03:36.422Z,56.00
2017-10-02T08:06:04.055Z,55.90
2017-10-02T08:08:31.685Z,57.80
2017-10-02T08:10:59.317Z,58.70
2017-10-02T08:13:26.861Z,58.90
2017-10-02T08:15:54.510Z,63.10
2017-10-02T08:18:22.090Z,66.40
2017-10-02T08:20:49.732Z,70.50
2017-10-02T08:23:17.366Z,75.40
2017-10-02T08:25:44.998Z,77.80
2017-10-02T08:28:12.722Z,79.10
2017-10-02T08:30:40.313Z,80.30
2017-10-02T08:33:07.954Z,81.20
2017-10-02T08:35:35.825Z,80.70
2017-10-02T08:38:03.453Z,79.00
2017-10-02T08:40:31.089Z,78.10
2017-10-02T08:42:58.711Z,77.40
2017-10-02T08:45:26.378Z,78.70
2017-10-02T08:47:53.990Z,75.70
2017-10-02T08:50:21.659Z,72.50
2017-10-02T08:52:49.264Z,64.60
2017-10-02T08:55:16.935Z,60.20
2017-10-02T08:57:44.518Z,57.20
2017-10-02T09:00:12.151Z,56.30
2017-10-02T09:02:39.770Z,57.00
2017-10-02T09:05:07.358Z,55.50
2017-10-02T09:07:34.992Z,55.70
2017-10-02T09:10:03.353Z,53.50
2017-10-02T09:12:33.377Z,53.50
2017-10-02T09:15:01.225Z,53.70
2017-10-02T09:17:28.870Z,53.20
2017-10-02T09:19:56.499Z,53.80
2017-10-02T09:22:24.133Z,52.20
2017-10-02T09:24:52.534Z,49.30
2017-10-02T09:27:20.324Z,49.30
2017-10-02T09:29:47.986Z,49.20
2017-10-02T09:32:15.607Z,49.90
2017-10-02T09:34:43.998Z,48.30
2017-10-02T09:37:11.621Z,48.20
2017-10-02T09:39:39.280Z,49.20
2017-10-02T09:42:06.921Z,49.10
2017-10-02T09:44:34.547Z,48.60
2017-10-02T09:47:02.148Z,47.70
2017-10-02T09:49:29.812Z,46.00
2017-10-02T09:51:57.478Z,47.20
2017-10-02T09:54:25.068Z,47.40
2017-10-02T09:56:53.476Z,46.30
2017-10-02T09:59:21.710Z,46.20
2017-10-02T10:01:49.372Z,45.70
2017-10-02T10:04:16.976Z,45.80
2017-10-02T10:06:44.608Z,45.90
2017-10-02T10:09:12.302Z,45.30
2017-10-02T10:11:39.924Z,44.90
2017-10-02T10:14:07.770Z,46.00
2017-10-02T10:16:35.415Z,46.30
2017-10-02T10:19:03.033Z,45.00
2017-10-02T10:21:30.670Z,46.80
2017-10-02T10:23:58.326Z,47.90
2017-10-02T10:26:26.126Z,49.10
2017-10-02T10:28:53.756Z,53.10
2017-10-02T10:31:21.472Z,54.90
2017-10-02T10:33:49.111Z,56.60
2017-10-02T10:36:16.692Z,59.20
2017-10-02T10:38:44.318Z,61.50
2017-10-02T10:41:11.961Z,64.60
2017-10-02T10:43:39.626Z,65.70
2017-10-02T10:46:07.215Z,66.00
2017-10-02T10:48:34.835Z,63.30
2017-10-02T10:51:02.469Z,62.40
2017-10-02T10:53:30.096Z,59.90
2017-10-02T10:55:57.654Z,60.70
2017-10-02T10:58:26.052Z,62.60
2017-10-02T11:00:53.815Z,62.50
2017-10-02T11:03:21.494Z,63.40
2017-10-02T11:05:49.071Z,64.60
2017-10-02T11:08:16.702Z,68.10
2017-10-02T11:10:44.382Z,69.50
2017-10-02T11:13:11.999Z,72.70
2017-10-02T11:15:40.349Z,74.50
2017-10-02T11:18:07.954Z,74.50
2017-10-02T11:20:35.615Z,75.80
2017-10-02T11:23:03.226Z,76.90
2017-10-02T11:25:30.828Z,77.50
2017-10-02T11:27:59.197Z,78.80
2017-10-02T11:30:26.871Z,78.70
2017-10-02T11:32:55.554Z,80.50
2017-10-02T11:35:23.183Z,80.40
2017-10-02T11:37:50.797Z,79.90
2017-10-02T11:40:18.466Z,80.50
2017-10-02T11:42:46.054Z,80.00
2017-10-02T11:45:13.690Z,80.70
2017-10-02T11:47:41.376Z,81.20
2017-10-02T11:50:09.010Z,82.20
2017-10-02T11:52:36.638Z,81.90
2017-10-02T11:55:05.043Z,81.30
2017-10-02T11:57:32.679Z,81.30
2017-10-02T12:00:00.307Z,80.50
2017-10-02T12:02:27.993Z,80.70
2017-10-02T12:04:55.621Z,79.60
2017-10-02T12:07:23.210Z,80.90
2017-10-02T12:09:50.807Z,80.80
2017-10-02T12:12:18.401Z,79.10
2017-10-02T12:14:46.042Z,77.90
2017-10-02T12:17:13.710Z,78.80
2017-10-02T12:19:41.333Z,78.10
2017-10-02T12:22:12.722Z,77.10
2017-10-02T12:24:40.710Z,77.70
2017-10-02T12:27:08.290Z,77.00
2017-10-02T12:29:35.938Z,77.10
2017-10-02T12:32:03.603Z,76.80
2017-10-02T12:34:31.244Z,76.40
2017-10-02T12:36:58.920Z,76.00
2017-10-02T12:39:26.558Z,75.60
2017-10-02T12:41:54.232Z,77.10
2017-10-02T12:44:21.878Z,77.00
2017-10-02T12:46:49.511Z,77.20
2017-10-02T12:49:17.956Z,76.30
2017-10-02T12:51:45.673Z,76.30
2017-10-02T12:54:13.390Z,76.90
2017-10-02T12:56:41.077Z,78.10
2017-10-02T12:59:08.802Z,80.00
2017-10-02T13:01:36.475Z,80.30
2017-10-02T13:04:04.191Z,80.30
2017-10-02T13:06:31.883Z,79.70
2017-10-02T13:08:59.535Z,81.40
2017-10-02T13:11:27.219Z,81.40
2017-10-02T13:13:54.842Z,81.10
2017-10-02T13:16:22.480Z,81.90
2017-10-02T13:18:50.113Z,82.10
2017-10-02T13:21:17.750Z,81.90
2017-10-02T13:23:45.467Z,81.90
2017-10-02T13:26:13.121Z,82.80
2017-10-02T13:28:40.774Z,83.50
2017-10-02T13:31:08.356Z,85.10
2017-10-02T13:33:36.719Z,85.60
2017-10-02T13:36:04.366Z,85.60
2017-10-02T13:38:31.973Z,85.90
2017-10-02T13:40:59.599Z,84.90
2017-10-02T13:43:27.232Z,84.90
2017-10-02T13:45:54.840Z,86.00
2017-10-02T13:48:22.465Z,86.70
2017-10-02T13:50:50.879Z,87.40
2017-10-02T13:53:18.558Z,87.40
2017-10-02T13:55:46.184Z,87.80
2017-10-02T13:58:13.795Z,87.80
2017-10-02T14:00:41.410Z,88.10
2017-10-02T14:03:09.054Z,88.10
2017-10-02T14:05:36.685Z,88.40
2017-10-02T14:08:04.370Z,88.40
2017-10-02T14:10:32.035Z,88.60
2017-10-02T14:12:59.685Z,88.70
2017-10-02T14:15:27.361Z,90.00
2017-10-02T14:17:55.017Z,89.50
2017-10-02T14:20:22.613Z,89.50
2017-10-02T14:22:50.264Z,90.00
2017-10-02T14:25:17.853Z,90.20
2017-10-02T14:27:46.223Z,90.70
2017-10-02T14:30:14.622Z,91.50
2017-10-02T14:32:42.218Z,91.50
2017-10-02T14:35:09.851Z,91.60
2017-10-02T14:37:37.486Z,92.50
2017-10-02T14:40:05.170Z,92.40
2017-10-02T14:42:32.766Z,93.20
2017-10-02T14:45:00.478Z,93.50
2017-10-02T14:47:28.071Z,93.70
2017-10-02T14:49:55.708Z,93.60
2017-10-02T14:52:23.388Z,93.70
2017-10-02T14:54:51.103Z,94.60
2017-10-02T14:57:18.948Z,94.90
2017-10-02T14:59:47.600Z,95.60
2017-10-02T15:02:16.110Z,95.70
2017-10-02T15:04:43.792Z,96.60
2017-10-02T15:07:11.465Z,96.30
2017-10-02T15:09:39.199Z,97.50
2017-10-02T15:12:06.826Z,97.80
2017-10-02T15:14:34.508Z,98.20
2017-10-02T15:17:02.150Z,98.20
2017-10-02T15:19:30.151Z,98.50
2017-10-02T15:21:57.964Z,98.00
2017-10-02T15:24:26.321Z,99.20
2017-10-02T15:26:53.943Z,99.20
2017-10-02T15:29:21.565Z,99.30
2017-10-02T15:31:50.046Z,99.30
2017-10-02T15:34:17.643Z,99.30
2017-10-02T15:36:45.268Z,99.90
2017-10-02T15:39:12.899Z,99.90
2017-10-02T15:41:40.554Z,99.90
2017-10-02T15:44:08.151Z,99.90
2017-10-02T15:46:35.747Z,99.90
2017-10-02T15:49:03.333Z,99.90
2017-10-02T15:51:30.969Z,99.90
2017-10-02T15:53:58.573Z,99.90
2017-10-02T15:56:26.187Z,99.90
2017-10-02T15:58:53.903Z,99.90
2017-10-02T16:01:21.541Z,99.90
2017-10-02T16:03:49.160Z,99.90
2017-10-02T16:06:16.820Z,99.90
2017-10-02T16:08:44.454Z,99.90
2017-10-02T16:11:12.081Z,99.90
2017-10-02T16:13:39.725Z,99.90
2017-10-02T16:16:07.345Z,99.90
2017-10-02T16:18:34.999Z,99.90
2017-10-02T16:21:02.620Z,99.90
2017-10-02T16:23:30.262Z,99.90
2017-10-02T16:25:57.913Z,99.90
2017-10-02T16:28:25.537Z,99.90
2017-10-02T16:30:53.162Z,99.90
2017-10-02T16:33:20.749Z,99.90
2017-10-02T16:35:48.496Z,99.90
2017-10-02T16:38:16.150Z,99.90
2017-10-02T16:40:43.745Z,99.90
2017-10-02T16:43:11.409Z,99.90
2017-10-02T16:45:39.030Z,99.90
2017-10-02T16:48:06.635Z,99.90
2017-10-02T16:50:34.263Z,99.90
2017-10-02T16:53:01.912Z,99.90
2017-10-02T16:55:29.548Z,99.90
2017-10-02T16:57:57.157Z,99.90
2017-10-02T17:00:24.794Z,99.90
2017-10-02T17:02:52.390Z,99.90
2017-10-02T17:05:19.994Z,99.90
2017-10-02T17:07:47.585Z,99.90
2017-10-02T17:10:15.206Z,99.90
2017-10-02T17:12:42.923Z,99.90
2017-10-02T17:15:10.569Z,99.90
2017-10-02T17:17:38.234Z,99.90
2017-10-02T17:20:06.041Z,99.90
2017-10-02T17:22:33.662Z,99.90
2017-10-02T17:25:01.291Z,99.90
2017-10-02T17:27:29.045Z,99.90
2017-10-02T17:29:56.666Z,99.90
2017-10-02T17:32:24.537Z,99.90
2017-10-02T17:34:52.192Z,99.90
2017-10-02T17:37:19.840Z,99.90
2017-10-02T17:39:47.462Z,99.90
2017-10-02T17:42:15.875Z,99.90
2017-10-02T17:44:43.505Z,99.90
2017-10-02T17:47:11.164Z,99.90
2017-10-02T17:49:38.881Z,99.90
2017-10-02T17:52:07.437Z,99.90
2017-10-02T17:54:35.099Z,99.90
2017-10-02T17:57:03.075Z,99.90
2017-10-02T17:59:30.716Z,99.90
2017-10-02T18:01:58.296Z,99.90
2017-10-02T18:04:25.927Z,99.90
2017-10-02T18:06:53.618Z,99.90
2017-10-02T18:09:21.253Z,99.90
2017-10-02T18:11:48.898Z,99.90
2017-10-02T18:14:16.547Z,99.90
2017-10-02T18:16:44.200Z,99.90
2017-10-02T18:19:11.856Z,99.90
2017-10-02T18:21:39.813Z,99.90
2017-10-02T18:24:07.598Z,99.90
2017-10-02T18:26:35.291Z,99.90
2017-10-02T18:29:02.935Z,99.90
2017-10-02T18:31:30.622Z,99.90
2017-10-02T18:33:58.315Z,99.90
2017-10-02T18:36:25.999Z,99.90
2017-10-02T18:38:53.626Z,99.90
2017-10-02T18:41:21.269Z,99.90
2017-10-02T18:43:49.018Z,99.90
2017-10-02T18:46:16.706Z,99.90
2017-10-02T18:48:44.309Z,99.90
2017-10-02T18:51:12.589Z,99.90
2017-10-02T18:53:40.180Z,99.90
2017-10-02T18:56:07.796Z,99.90
2017-10-02T18:58:35.430Z,99.90
2017-10-02T19:01:03.067Z,99.90
2017-10-02T19:03:30.697Z,99.90
2017-10-02T19:05:58.441Z,99.90
2017-10-02T19:08:26.123Z,99.90
2017-10-02T19:10:53.751Z,99.90
2017-10-02T19:13:21.374Z,99.90
2017-10-02T19:15:49.010Z,99.90
2017-10-02T19:18:16.726Z,99.90
2017-10-02T19:20:44.398Z,99.90
2017-10-02T19:23:12.028Z,99.90
2017-10-02T19:25:39.693Z,99.90
2017-10-02T19:28:08.099Z,99.90
2017-10-02T19:30:35.684Z,99.90
2017-10-02T19:33:04.233Z,99.90
2017-10-02T19:35:31.872Z,99.90
2017-10-02T19:37:59.495Z,99.90
2017-10-02T19:40:27.136Z,99.90
2017-10-02T19:42:54.774Z,99.90
2017-10-02T19:45:22.406Z,99.90
2017-10-02T19:47:50.044Z,99.90
2017-10-02T19:50:17.684Z,99.90
2017-10-02T19:52:45.317Z,99.90
2017-10-02T19:55:12.930Z,99.90
2017-10-02T19:57:40.516Z,99.90
2017-10-02T20:00:08.130Z,99.90
2017-10-02T20:02:35.764Z,99.90
2017-10-02T20:05:04.129Z,99.90
2017-10-02T20:07:32.492Z,99.90
2017-10-02T20:10:00.048Z,99.90
2017-10-02T20:12:27.655Z,99.90
2017-10-02T20:14:55.255Z,99.90
2017-10-02T20:17:22.877Z,99.90
2017-10-02T20:19:50.533Z,99.90
2017-10-02T20:22:18.176Z,99.90
2017-10-02T20:24:45.886Z,99.90
2017-10-02T20:27:13.550Z,99.90
2017-10-02T20:29:41.173Z,99.90
2017-10-02T20:32:09.554Z,99.90
2017-10-02T20:34:37.195Z,99.90
2017-10-02T20:37:04.829Z,99.90
2017-10-02T20:39:32.459Z,99.90
2017-10-02T20:42:00.102Z,99.90
2017-10-02T20:44:28.497Z,99.90
2017-10-02T20:46:56.143Z,99.90
2017-10-02T20:49:23.802Z,99.90
2017-10-02T20:51:52.167Z,99.90
2017-10-02T20:54:19.801Z,99.90
2017-10-02T20:56:47.426Z,99.90
2017-10-02T20:59:15.063Z,99.90
2017-10-02T21:01:42.706Z,99.90
2017-10-02T21:04:10.372Z,99.90
2017-10-02T21:06:38.002Z,99.90
2017-10-02T21:09:05.674Z,99.90
2017-10-02T21:11:33.348Z,99.90
2017-10-02T21:14:01.099Z,99.90
2017-10-02T21:16:28.645Z,99.90
2017-10-02T21:18:56.329Z,99.90
2017-10-02T21:21:23.955Z,99.90
2017-10-02T21:23:51.540Z,99.90
2017-10-02T21:26:19.180Z,99.90
2017-10-02T21:28:47.560Z,99.90
2017-10-02T21:31:15.189Z,99.90
2017-10-02T21:33:42.810Z,99.90
2017-10-02T21:36:10.394Z,99.90
2017-10-02T21:38:38.059Z,99.90
2017-10-02T21:41:06.526Z,99.90
2017-10-02T21:43:34.164Z,99.90
2017-10-02T21:46:01.859Z,99.90
2017-10-02T21:48:30.318Z,99.90
2017-10-02T21:50:57.938Z,99.90
2017-10-02T21:53:25.559Z,99.90
2017-10-02T21:55:53.186Z,99.90
2017-10-02T21:58:20.822Z,99.90
2017-10-02T22:00:48.442Z,99.90
2017-10-02T22:03:16.039Z,99.90
2017-10-02T22:05:43.751Z,99.90
2017-10-02T22:08:11.346Z,99.90
2017-10-02T22:10:38.950Z,99.90
2017-10-02T22:13:06.591Z,99.90
2017-10-02T22:15:34.195Z,99.90
2017-10-02T22:18:01.792Z,99.90
2017-10-02T22:20:29.432Z,99.90
2017-10-02T22:22:57.164Z,99.90
2017-10-02T22:25:24.800Z,99.90
2017-10-02T22:27:52.393Z,99.90
2017-10-02T22:30:19.955Z,99.90
2017-10-02T22:32:47.527Z,99.90
2017-10-02T22:35:15.144Z,99.90
2017-10-02T22:37:42.773Z,99.90
2017-10-02T22:40:10.420Z,99.90
2017-10-02T22:42:38.058Z,99.90
2017-10-02T22:45:05.678Z,99.90
2017-10-02T22:47:33.320Z,99.90
2017-10-02T22:50:01.691Z,99.90
2017-10-02T22:52:30.189Z,99.90
2017-10-02T22:54:57.821Z,99.90
2017-10-02T22:57:25.465Z,99.90
2017-10-02T22:59:53.050Z,99.90
2017-10-02T23:02:20.650Z,99.90
2017-10-02T23:04:48.340Z,99.90
2017-10-02T23:07:15.934Z,99.90
2017-10-02T23:09:43.570Z,99.90
2017-10-02T23:12:11.197Z,99.90
2017-10-02T23:14:38.822Z,99.90
2017-10-02T23:17:06.450Z,99.90
2017-10-02T23:19:34.080Z,99.90
2017-10-02T23:22:01.670Z,99.90
2017-10-02T23:24:29.301Z,99.90
2017-10-02T23:26:56.888Z,99.90
2017-10-02T23:29:24.526Z,99.90
2017-10-02T23:31:52.163Z,99.90
2017-10-02T23:34:20.575Z,99.90
2017-10-02T23:36:48.179Z,99.90
2017-10-02T23:39:15.852Z,99.90
2017-10-02T23:41:43.580Z,99.90
2017-10-02T23:44:11.363Z,99.90
2017-10-02T23:46:39.004Z,99.90
2017-10-02T23:49:06.646Z,99.90
2017-10-02T23:51:34.266Z,99.90
2017-10-02T23:54:01.860Z,99.90
2017-10-02T23:56:29.487Z,99.90
2017-10-02T23:58:57.121Z,99.90
